Time;durP1;ratioP1;P1;durP2;ratioP2;P2;SDS_P1;SDS_P2;PMS_P1;PMS_P2;Temp;Humidity;BMP_temperature;BMP_pressure;BME280_temperature;BME280_humidity;BME280_pressure;Samples;Min_cycle;Max_cycle;Signal;HPM_P1;HPM_P2
2023/12/17 00:00:59;;;;;;;9.50;5.80;;;5.80;99.90;;;;;;4959239;28;20480;-68
2023/12/17 00:03:26;;;;;;;8.13;6.27;;;5.80;99.90;;;;;;4955272;28;20485;-68
2023/12/17 00:05:52;;;;;;;11.67;6.70;;;5.80;99.90;;;;;;4956294;28;20202;-69
2023/12/17 00:08:20;;;;;;;10.70;7.80;;;5.90;99.90;;;;;;4956514;28;20426;-69
2023/12/17 00:10:46;;;;;;;10.13;6.93;;;5.90;99.90;;;;;;4959010;28;20453;-69
2023/12/17 00:13:11;;;;;;;11.13;7.70;;;5.90;99.90;;;;;;4953266;28;20811;-69
2023/12/17 00:15:37;;;;;;;11.80;7.43;;;5.90;99.90;;;;;;4959108;28;20450;-69
2023/12/17 00:18:03;;;;;;;8.60;7.30;;;5.90;99.90;;;;;;4957984;28;20197;-69
2023/12/17 00:20:29;;;;;;;10.00;6.87;;;5.90;99.90;;;;;;4953701;28;20269;-69
2023/12/17 00:22:55;;;;;;;10.23;7.30;;;5.90;99.90;;;;;;4953551;28;20469;-69
2023/12/17 00:25:20;;;;;;;12.33;7.33;;;5.90;99.90;;;;;;4956283;28;20454;-69
2023/12/17 00:27:46;;;;;;;13.50;6.73;;;5.90;99.90;;;;;;4950391;28;20243;-69
2023/12/17 00:30:12;;;;;;;7.37;6.00;;;5.90;99.90;;;;;;4958475;28;20194;-68
2023/12/17 00:32:37;;;;;;;8.67;6.70;;;5.90;99.90;;;;;;4960343;28;20548;-68
2023/12/17 00:35:03;;;;;;;10.17;7.03;;;5.90;99.90;;;;;;4961586;28;20198;-68
2023/12/17 00:37:29;;;;;;;9.57;6.73;;;5.90;99.90;;;;;;4960494;28;20633;-69
2023/12/17 00:39:55;;;;;;;14.53;6.90;;;5.90;99.90;;;;;;4956732;28;20650;-68
2023/12/17 00:42:20;;;;;;;8.77;7.20;;;5.90;99.90;;;;;;4959680;28;20187;-69
2023/12/17 00:44:46;;;;;;;10.43;7.23;;;5.90;99.90;;;;;;4958136;28;20474;-68
2023/12/17 00:47:12;;;;;;;11.53;6.97;;;5.90;99.90;;;;;;4956566;28;20183;-68
2023/12/17 00:49:37;;;;;;;11.53;7.00;;;5.90;99.90;;;;;;4948292;28;20273;-68
2023/12/17 00:52:03;;;;;;;13.00;7.10;;;5.90;99.90;;;;;;4958408;28;20187;-68
2023/12/17 00:54:29;;;;;;;11.30;7.43;;;5.90;99.90;;;;;;4953762;28;20253;-69
2023/12/17 00:56:55;;;;;;;9.53;7.07;;;5.90;99.90;;;;;;4957881;28;20433;-69
2023/12/17 00:59:20;;;;;;;9.80;6.57;;;5.90;99.90;;;;;;4957119;28;20214;-68
2023/12/17 01:01:46;;;;;;;7.83;7.03;;;5.90;99.90;;;;;;4960731;28;20426;-68
2023/12/17 01:04:11;;;;;;;10.17;6.47;;;5.90;99.90;;;;;;4951903;28;20238;-68
2023/12/17 01:06:37;;;;;;;8.83;6.47;;;5.90;99.90;;;;;;4963268;28;20679;-69
2023/12/17 01:09:03;;;;;;;8.97;6.10;;;5.90;99.90;;;;;;4959642;28;20721;-69
2023/12/17 01:11:28;;;;;;;10.20;6.60;;;5.90;99.90;;;;;;4954538;28;20188;-68
2023/12/17 01:13:54;;;;;;;9.43;7.70;;;5.90;99.90;;;;;;4953221;28;20265;-68
2023/12/17 01:16:19;;;;;;;11.00;7.60;;;5.90;99.90;;;;;;4953726;28;20198;-68
2023/12/17 01:18:45;;;;;;;10.73;6.87;;;5.90;99.90;;;;;;4958135;28;20187;-68
2023/12/17 01:21:10;;;;;;;11.50;7.47;;;5.80;99.90;;;;;;4952098;28;20582;-68
2023/12/17 01:23:37;;;;;;;10.73;7.77;;;5.80;99.90;;;;;;4957625;28;20236;-68
2023/12/17 01:26:03;;;;;;;9.57;7.50;;;5.80;99.90;;;;;;4953738;28;20178;-68
2023/12/17 01:28:29;;;;;;;10.30;6.93;;;5.80;99.90;;;;;;4960277;28;20442;-68
2023/12/17 01:30:54;;;;;;;12.60;7.20;;;5.80;99.90;;;;;;4952229;28;20468;-68
2023/12/17 01:33:20;;;;;;;10.90;7.00;;;5.80;99.90;;;;;;4951477;28;20265;-68
2023/12/17 01:35:45;;;;;;;8.93;6.87;;;5.80;99.90;;;;;;4957985;28;20669;-68
2023/12/17 01:38:11;;;;;;;11.37;7.37;;;5.80;99.90;;;;;;4952737;28;20198;-68
2023/12/17 01:40:39;;;;;;;11.00;7.17;;;5.80;99.90;;;;;;4958164;28;20191;-68
2023/12/17 01:43:08;;;;;;;8.10;6.97;;;5.80;99.90;;;;;;4959675;28;20201;-68
2023/12/17 01:45:33;;;;;;;10.47;6.20;;;5.80;99.90;;;;;;4956608;28;20440;-68
2023/12/17 01:47:59;;;;;;;9.33;6.87;;;5.80;99.90;;;;;;4961752;28;20437;-68
2023/12/17 01:50:26;;;;;;;10.20;7.27;;;5.80;99.90;;;;;;4957303;28;20261;-67
2023/12/17 01:52:52;;;;;;;8.90;6.73;;;5.80;99.90;;;;;;4961750;28;20437;-68
2023/12/17 01:55:18;;;;;;;10.13;6.90;;;5.80;99.90;;;;;;4960074;28;20448;-68
2023/12/17 01:57:43;;;;;;;8.90;6.90;;;5.80;99.90;;;;;;4954564;28;20429;-67
2023/12/17 02:00:11;;;;;;;10.97;8.37;;;5.80;99.90;;;;;;4957849;28;20525;-67
2023/12/17 02:02:36;;;;;;;11.40;7.57;;;5.80;99.90;;;;;;4956613;28;20186;-68
2023/12/17 02:05:05;;;;;;;14.93;8.70;;;5.70;99.90;;;;;;4955518;28;20838;-68
2023/12/17 02:07:31;;;;;;;13.23;8.20;;;5.70;99.90;;;;;;4954844;28;20167;-68
2023/12/17 02:09:57;;;;;;;10.80;8.40;;;5.70;99.90;;;;;;4958419;28;20428;-67
2023/12/17 02:12:25;;;;;;;10.93;8.97;;;5.70;99.90;;;;;;4954931;28;20437;-67
2023/12/17 02:14:50;;;;;;;13.60;8.93;;;5.60;99.90;;;;;;4950109;28;20258;-68
2023/12/17 02:17:25;;;;;;;16.27;9.33;;;5.60;99.90;;;;;;4955302;28;20445;-68
2023/12/17 02:19:50;;;;;;;11.77;8.60;;;5.60;99.90;;;;;;4947420;28;20274;-68
2023/12/17 02:22:16;;;;;;;12.13;8.67;;;5.50;99.90;;;;;;4950066;28;20958;-68
2023/12/17 02:24:41;;;;;;;10.53;8.47;;;5.50;99.90;;;;;;4963145;28;20664;-68
2023/12/17 02:27:07;;;;;;;9.90;7.80;;;5.50;99.90;;;;;;4958701;28;20265;-67
2023/12/17 02:29:32;;;;;;;14.50;7.70;;;5.50;99.90;;;;;;4959877;28;20183;-67
2023/12/17 02:31:58;;;;;;;11.47;8.27;;;5.50;99.90;;;;;;4955701;28;20265;-68
2023/12/17 02:34:23;;;;;;;10.07;7.07;;;5.50;99.90;;;;;;4959872;28;20213;-68
2023/12/17 02:36:49;;;;;;;9.10;6.93;;;5.40;99.90;;;;;;4961455;28;20187;-67
2023/12/17 02:39:14;;;;;;;14.80;7.80;;;5.40;99.90;;;;;;4955553;28;20715;-67
2023/12/17 02:41:40;;;;;;;11.70;6.63;;;5.40;99.90;;;;;;4961116;28;20202;-67
2023/12/17 02:44:06;;;;;;;8.47;5.60;;;5.40;99.90;;;;;;4959032;28;20222;-68
2023/12/17 02:46:31;;;;;;;8.37;6.80;;;5.40;99.90;;;;;;4958003;28;20183;-68
2023/12/17 02:48:57;;;;;;;9.90;6.07;;;5.40;99.90;;;;;;4962026;28;20274;-68
2023/12/17 02:51:22;;;;;;;11.60;6.43;;;5.40;99.90;;;;;;4960114;28;20217;-68
2023/12/17 02:53:48;;;;;;;9.47;6.03;;;5.40;99.90;;;;;;4961921;28;20272;-68
2023/12/17 02:56:13;;;;;;;9.17;6.43;;;5.40;99.90;;;;;;4963717;28;20187;-68
2023/12/17 02:58:39;;;;;;;9.60;5.50;;;5.40;99.90;;;;;;4963793;28;20186;-67
2023/12/17 03:01:05;;;;;;;9.77;5.70;;;5.40;99.90;;;;;;4966972;28;20590;-67
2023/12/17 03:03:30;;;;;;;9.60;5.10;;;5.40;99.90;;;;;;4963518;28;20210;-67
2023/12/17 03:05:56;;;;;;;11.03;5.97;;;5.40;99.90;;;;;;4961023;28;20250;-67
2023/12/17 03:08:21;;;;;;;8.23;5.87;;;5.30;99.90;;;;;;4955421;28;20180;-68
2023/12/17 03:10:47;;;;;;;8.43;5.60;;;5.20;99.90;;;;;;4966348;28;20226;-67
2023/12/17 03:13:14;;;;;;;11.30;6.07;;;5.20;99.90;;;;;;4963394;28;20249;-67
2023/12/17 03:15:39;;;;;;;8.10;5.30;;;5.20;99.90;;;;;;4960754;28;20503;-68
2023/12/17 03:18:05;;;;;;;9.83;5.60;;;5.20;99.90;;;;;;4955776;28;20290;-67
2023/12/17 03:20:30;;;;;;;9.37;6.13;;;5.20;99.90;;;;;;4960772;28;20205;-67
2023/12/17 03:22:56;;;;;;;9.93;5.60;;;5.10;99.90;;;;;;4958314;28;20210;-67
2023/12/17 03:25:22;;;;;;;7.60;5.33;;;5.10;99.90;;;;;;4958422;28;20211;-67
2023/12/17 03:27:47;;;;;;;7.13;5.17;;;5.00;99.90;;;;;;4959668;28;20182;-67
2023/12/17 03:30:13;;;;;;;8.93;5.37;;;5.00;99.90;;;;;;4967726;28;20185;-67
2023/12/17 03:32:38;;;;;;;8.07;5.43;;;5.00;99.90;;;;;;4961552;28;20190;-67
2023/12/17 03:35:04;;;;;;;6.30;4.70;;;5.00;99.90;;;;;;4959156;28;20289;-68
2023/12/17 03:37:30;;;;;;;7.70;5.27;;;4.90;99.90;;;;;;4958128;28;20225;-68
2023/12/17 03:39:56;;;;;;;6.70;5.40;;;4.90;99.90;;;;;;4963614;28;20446;-68
2023/12/17 03:42:21;;;;;;;7.33;5.23;;;4.90;99.90;;;;;;4963694;28;20234;-67
2023/12/17 03:44:47;;;;;;;6.90;4.70;;;4.80;99.90;;;;;;4957822;28;20221;-67
2023/12/17 03:47:12;;;;;;;6.30;4.83;;;4.80;99.90;;;;;;4965326;28;20190;-68
2023/12/17 03:49:38;;;;;;;7.87;5.43;;;4.70;99.90;;;;;;4965499;28;20270;-67
2023/12/17 03:52:06;;;;;;;10.23;5.27;;;4.70;99.90;;;;;;4962066;28;20653;-68
2023/12/17 03:54:31;;;;;;;11.33;5.93;;;4.70;99.90;;;;;;4961807;28;20290;-68
2023/12/17 03:56:57;;;;;;;6.57;4.67;;;4.60;99.90;;;;;;4963742;28;20887;-68
2023/12/17 03:59:23;;;;;;;7.77;5.37;;;4.70;99.90;;;;;;4960704;28;20245;-68
2023/12/17 04:01:49;;;;;;;9.00;5.20;;;4.70;99.90;;;;;;4965290;28;20442;-67
2023/12/17 04:04:14;;;;;;;7.53;5.10;;;4.70;99.90;;;;;;4963292;28;20238;-68
2023/12/17 04:06:43;;;;;;;7.77;5.27;;;4.70;99.90;;;;;;4962336;28;20213;-67
2023/12/17 04:09:10;;;;;;;8.73;5.40;;;4.70;99.90;;;;;;4966807;28;20179;-67
2023/12/17 04:11:35;;;;;;;5.57;4.80;;;4.70;99.90;;;;;;4958168;28;20842;-67
2023/12/17 04:14:01;;;;;;;5.70;4.80;;;4.80;99.90;;;;;;4961031;28;20457;-68
2023/12/17 04:16:27;;;;;;;6.90;5.23;;;4.70;99.90;;;;;;4958889;28;20950;-67
2023/12/17 04:18:52;;;;;;;6.53;5.27;;;4.60;99.90;;;;;;4964731;28;20196;-68
2023/12/17 04:21:18;;;;;;;6.90;5.13;;;4.70;99.90;;;;;;4957015;28;20240;-67
2023/12/17 04:23:44;;;;;;;7.67;5.60;;;4.60;99.90;;;;;;4959604;28;20242;-68
2023/12/17 04:26:13;;;;;;;6.33;5.30;;;4.70;99.90;;;;;;4962333;28;20233;-68
2023/12/17 04:28:39;;;;;;;7.73;5.40;;;4.70;99.90;;;;;;4959688;28;20883;-68
2023/12/17 04:31:04;;;;;;;5.97;4.90;;;4.80;99.90;;;;;;4953901;28;20430;-68
2023/12/17 04:33:31;;;;;;;9.87;7.03;;;4.80;99.90;;;;;;4964180;28;20220;-67
2023/12/17 04:35:57;;;;;;;7.60;4.30;;;4.80;99.90;;;;;;4959451;28;20202;-68
2023/12/17 04:38:23;;;;;;;7.30;4.70;;;4.80;99.90;;;;;;4953796;28;21034;-68
2023/12/17 04:40:49;;;;;;;5.67;4.70;;;4.80;99.90;;;;;;4957277;28;20950;-68
2023/12/17 04:43:15;;;;;;;8.07;4.90;;;4.70;99.90;;;;;;4958165;28;20485;-68
2023/12/17 04:45:41;;;;;;;7.10;5.03;;;4.80;99.90;;;;;;4957578;28;20665;-68
2023/12/17 04:48:06;;;;;;;9.60;5.00;;;4.70;99.90;;;;;;4963393;28;20187;-68
2023/12/17 04:50:32;;;;;;;5.93;4.90;;;4.80;99.90;;;;;;4954609;28;20261;-68
2023/12/17 04:52:57;;;;;;;5.97;5.33;;;4.70;99.90;;;;;;4958358;28;20210;-68
2023/12/17 04:55:23;;;;;;;5.80;4.70;;;4.70;99.90;;;;;;4957490;28;20901;-68
2023/12/17 04:57:49;;;;;;;7.37;5.30;;;4.70;99.90;;;;;;4961953;28;20186;-68
2023/12/17 05:00:15;;;;;;;6.40;5.43;;;4.60;99.90;;;;;;4964565;28;20198;-68
2023/12/17 05:02:40;;;;;;;7.50;6.20;;;4.60;99.90;;;;;;4964534;28;20186;-68
2023/12/17 05:05:06;;;;;;;13.00;7.03;;;4.60;99.90;;;;;;4963263;28;21059;-68
2023/12/17 05:07:32;;;;;;;7.00;5.70;;;4.60;99.90;;;;;;4962064;28;21148;-68
2023/12/17 05:09:58;;;;;;;11.10;6.20;;;4.60;99.90;;;;;;4958721;28;20549;-68
2023/12/17 05:12:23;;;;;;;7.43;6.10;;;4.50;99.90;;;;;;4960638;28;20418;-67
2023/12/17 05:14:49;;;;;;;9.67;6.93;;;4.50;99.90;;;;;;4962852;28;20210;-68
2023/12/17 05:17:14;;;;;;;7.60;5.77;;;4.50;99.90;;;;;;4960376;28;20270;-68
2023/12/17 05:19:40;;;;;;;11.50;6.00;;;4.60;99.90;;;;;;4959612;28;20205;-67
2023/12/17 05:22:05;;;;;;;9.40;6.00;;;4.60;99.90;;;;;;4953699;28;20183;-68
2023/12/17 05:24:31;;;;;;;8.73;6.60;;;4.60;99.90;;;;;;4961861;28;20226;-67
2023/12/17 05:26:56;;;;;;;8.17;7.20;;;4.40;99.90;;;;;;4960418;28;20181;-68
2023/12/17 05:29:22;;;;;;;7.50;6.70;;;4.30;99.90;;;;;;4958469;28;20221;-68
2023/12/17 05:31:47;;;;;;;7.90;6.10;;;4.30;99.90;;;;;;4957069;28;20179;-68
2023/12/17 05:34:13;;;;;;;9.97;6.17;;;4.40;99.90;;;;;;4955240;28;20210;-68
2023/12/17 05:36:39;;;;;;;11.20;7.20;;;4.40;99.90;;;;;;4956487;28;20191;-67
2023/12/17 05:39:05;;;;;;;8.73;6.60;;;4.40;99.90;;;;;;4957960;28;20247;-68
2023/12/17 05:41:31;;;;;;;9.17;6.70;;;4.20;99.90;;;;;;4960046;28;20610;-67
2023/12/17 05:43:56;;;;;;;10.10;6.87;;;4.30;99.90;;;;;;4962245;28;20507;-67
2023/12/17 05:46:22;;;;;;;8.30;7.10;;;4.30;99.90;;;;;;4954711;28;20652;-67
2023/12/17 05:48:47;;;;;;;11.17;7.40;;;4.30;99.90;;;;;;4951271;28;20642;-68
2023/12/17 05:51:13;;;;;;;10.10;7.90;;;4.20;99.90;;;;;;4954111;28;20183;-68
2023/12/17 05:53:38;;;;;;;8.70;7.00;;;4.20;99.90;;;;;;4958565;28;20202;-67
2023/12/17 05:56:04;;;;;;;11.47;7.00;;;4.10;99.90;;;;;;4960754;28;20186;-67
2023/12/17 05:58:30;;;;;;;9.30;7.20;;;4.10;99.90;;;;;;4962242;28;20194;-68
2023/12/17 06:00:56;;;;;;;12.83;7.00;;;4.10;99.90;;;;;;4957522;28;20418;-68
2023/12/17 06:03:22;;;;;;;10.87;7.60;;;4.10;99.90;;;;;;4960415;28;20210;-68
2023/12/17 06:05:47;;;;;;;12.80;8.57;;;4.10;99.90;;;;;;4966098;28;20199;-68
2023/12/17 06:08:13;;;;;;;10.53;6.97;;;4.10;99.90;;;;;;4964021;28;20580;-68
2023/12/17 06:10:39;;;;;;;10.73;8.33;;;4.10;99.90;;;;;;4958625;28;20257;-68
2023/12/17 06:13:05;;;;;;;11.77;6.77;;;4.10;99.90;;;;;;4961818;28;20281;-68
2023/12/17 06:15:30;;;;;;;12.83;8.37;;;4.10;99.90;;;;;;4956501;28;21003;-68
2023/12/17 06:17:56;;;;;;;8.90;7.13;;;4.20;99.90;;;;;;4966786;28;20265;-68
2023/12/17 06:20:22;;;;;;;10.30;7.17;;;4.20;99.90;;;;;;4959632;28;20182;-68
2023/12/17 06:22:49;;;;;;;8.93;6.20;;;4.20;99.90;;;;;;4963645;28;20553;-68
2023/12/17 06:25:16;;;;;;;9.73;6.77;;;4.30;99.90;;;;;;4957127;28;20217;-68
2023/12/17 06:27:41;;;;;;;9.13;7.53;;;4.30;99.90;;;;;;4961527;28;20492;-68
2023/12/17 06:30:07;;;;;;;13.23;7.20;;;4.20;99.90;;;;;;4958960;28;20442;-68
2023/12/17 06:32:33;;;;;;;9.27;6.70;;;4.20;99.90;;;;;;4960782;28;20658;-68
2023/12/17 06:34:58;;;;;;;10.23;6.70;;;4.20;99.90;;;;;;4962284;28;20444;-67
2023/12/17 06:37:24;;;;;;;8.70;7.53;;;4.10;99.90;;;;;;4963039;28;20588;-68
2023/12/17 06:39:50;;;;;;;12.33;7.17;;;4.10;99.90;;;;;;4962551;28;20186;-68
2023/12/17 06:42:18;;;;;;;8.70;7.00;;;4.10;99.90;;;;;;4965224;28;20265;-68
2023/12/17 06:44:43;;;;;;;9.77;6.70;;;4.10;99.90;;;;;;4962581;28;20218;-68
2023/12/17 06:47:09;;;;;;;10.83;7.50;;;4.10;99.90;;;;;;4958686;28;21807;-68
2023/12/17 06:49:36;;;;;;;7.83;6.70;;;4.20;99.90;;;;;;4960725;28;20183;-69
2023/12/17 06:52:01;;;;;;;8.77;6.43;;;4.20;99.90;;;;;;4962171;28;20187;-68
2023/12/17 06:54:27;;;;;;;9.50;7.53;;;4.20;99.90;;;;;;4961809;28;20541;-68
2023/12/17 06:56:52;;;;;;;11.90;7.00;;;4.10;99.90;;;;;;4956942;28;20183;-68
2023/12/17 06:59:18;;;;;;;10.57;7.40;;;4.10;99.90;;;;;;4961666;28;20203;-68
2023/12/17 07:01:44;;;;;;;12.67;7.20;;;4.20;99.90;;;;;;4960672;28;20221;-68
2023/12/17 07:04:09;;;;;;;10.47;7.50;;;4.20;99.90;;;;;;4959022;28;20341;-68
2023/12/17 07:06:36;;;;;;;11.60;7.27;;;4.20;99.90;;;;;;4960614;28;21181;-68
2023/12/17 07:09:01;;;;;;;8.03;6.47;;;4.20;99.90;;;;;;4958877;28;20314;-68
2023/12/17 07:11:27;;;;;;;11.60;7.37;;;4.20;99.90;;;;;;4964389;28;20995;-68
2023/12/17 07:13:53;;;;;;;11.40;7.90;;;4.10;99.90;;;;;;4963505;28;20481;-68
2023/12/17 07:16:22;;;;;;;9.10;7.40;;;4.00;99.90;;;;;;4960831;28;20179;-68
2023/12/17 07:18:48;;;;;;;9.47;6.30;;;4.00;99.90;;;;;;4961546;28;20190;-68
2023/12/17 07:21:15;;;;;;;7.97;6.57;;;3.90;99.90;;;;;;4967681;28;21005;-68
2023/12/17 07:23:40;;;;;;;9.57;7.20;;;3.90;99.90;;;;;;4958331;28;20465;-68
2023/12/17 07:26:06;;;;;;;9.00;7.33;;;4.00;99.90;;;;;;4965047;28;20736;-68
2023/12/17 07:28:32;;;;;;;12.90;7.37;;;4.10;99.90;;;;;;4961981;28;20200;-68
2023/12/17 07:30:57;;;;;;;9.20;7.33;;;4.10;99.90;;;;;;4963693;28;20757;-68
2023/12/17 07:33:23;;;;;;;9.20;6.83;;;4.10;99.90;;;;;;4963854;28;20301;-68
2023/12/17 07:35:48;;;;;;;9.90;7.10;;;4.00;99.90;;;;;;4957495;28;20365;-66
2023/12/17 07:38:14;;;;;;;12.00;7.13;;;3.90;99.90;;;;;;4962791;28;20190;-66
2023/12/17 07:40:40;;;;;;;7.90;6.40;;;3.90;99.90;;;;;;4959654;28;21285;-68
2023/12/17 07:43:05;;;;;;;10.47;6.80;;;3.90;99.90;;;;;;4962796;28;20202;-68
2023/12/17 07:45:32;;;;;;;8.17;6.93;;;4.00;99.90;;;;;;4961453;28;20731;-68
2023/12/17 07:47:58;;;;;;;9.97;7.37;;;4.00;99.90;;;;;;4959073;28;20180;-68
2023/12/17 07:50:24;;;;;;;9.03;7.50;;;4.00;99.90;;;;;;4961732;28;20472;-68
2023/12/17 07:52:49;;;;;;;12.90;6.97;;;4.00;99.90;;;;;;4959741;28;20191;-68
2023/12/17 07:55:15;;;;;;;9.40;7.40;;;3.90;99.90;;;;;;4964974;28;20191;-68
2023/12/17 07:57:41;;;;;;;10.90;7.70;;;4.00;99.90;;;;;;4960889;28;20190;-68
2023/12/17 08:00:08;;;;;;;9.47;7.40;;;4.00;99.90;;;;;;4960129;28;20183;-68
2023/12/17 08:02:34;;;;;;;13.37;8.67;;;4.10;99.90;;;;;;4961773;28;20201;-68
2023/12/17 08:04:59;;;;;;;12.83;8.37;;;4.20;99.90;;;;;;4960354;28;20477;-68
2023/12/17 08:07:25;;;;;;;9.00;7.90;;;4.30;99.90;;;;;;4958757;28;20286;-68
2023/12/17 08:09:50;;;;;;;14.87;8.50;;;4.30;99.90;;;;;;4962049;28;20185;-68
2023/12/17 08:12:16;;;;;;;10.20;7.17;;;4.20;99.90;;;;;;4959149;28;20195;-68
2023/12/17 08:14:41;;;;;;;11.07;8.60;;;4.10;99.90;;;;;;4960640;28;20206;-68
2023/12/17 08:17:07;;;;;;;10.50;8.03;;;4.20;99.90;;;;;;4962761;28;20703;-68
2023/12/17 08:19:33;;;;;;;10.57;8.30;;;4.10;99.90;;;;;;4960746;28;20197;-68
2023/12/17 08:21:58;;;;;;;10.20;7.93;;;4.00;99.90;;;;;;4959809;28;20186;-68
2023/12/17 08:24:25;;;;;;;10.27;8.00;;;4.00;99.90;;;;;;4961002;28;20715;-68
2023/12/17 08:26:51;;;;;;;13.47;9.60;;;4.10;99.90;;;;;;4957989;28;20686;-69
2023/12/17 08:29:17;;;;;;;11.53;8.17;;;4.10;99.90;;;;;;4961607;28;20437;-68
2023/12/17 08:31:46;;;;;;;11.40;8.73;;;4.00;99.90;;;;;;4958970;28;20432;-68
2023/12/17 08:34:11;;;;;;;10.80;8.90;;;4.10;99.90;;;;;;4959055;28;20206;-68
2023/12/17 08:36:37;;;;;;;13.47;9.20;;;4.00;99.90;;;;;;4956424;28;20492;-68
2023/12/17 08:39:05;;;;;;;12.87;9.13;;;4.10;99.90;;;;;;4959248;28;20187;-68
2023/12/17 08:41:33;;;;;;;10.40;8.20;;;4.00;99.90;;;;;;4953771;28;20190;-68
2023/12/17 08:43:59;;;;;;;12.90;9.80;;;4.00;99.90;;;;;;4957965;28;20465;-68
2023/12/17 08:46:25;;;;;;;14.63;8.73;;;3.90;99.90;;;;;;4959375;28;20431;-68
2023/12/17 08:48:50;;;;;;;9.70;8.20;;;4.00;99.90;;;;;;4962728;28;20424;-69
2023/12/17 08:51:16;;;;;;;10.27;8.37;;;4.10;99.90;;;;;;4962613;28;20249;-68
2023/12/17 08:53:41;;;;;;;12.20;8.53;;;4.20;99.90;;;;;;4958760;28;20205;-68
2023/12/17 08:56:08;;;;;;;11.87;9.37;;;4.40;99.90;;;;;;4955628;28;20851;-70
2023/12/17 08:58:33;;;;;;;12.13;9.00;;;4.40;99.90;;;;;;4957326;28;20209;-67
2023/12/17 09:00:59;;;;;;;11.57;8.70;;;4.20;99.90;;;;;;4955731;28;20445;-67
2023/12/17 09:03:25;;;;;;;13.50;9.30;;;4.20;99.90;;;;;;4956834;28;20219;-68
2023/12/17 09:05:50;;;;;;;12.60;9.10;;;4.20;99.90;;;;;;4959688;28;20202;-68
2023/12/17 09:08:16;;;;;;;11.40;9.50;;;4.20;99.90;;;;;;4958044;28;20219;-67
2023/12/17 09:10:41;;;;;;;12.33;10.43;;;4.30;99.90;;;;;;4953669;28;20634;-67
2023/12/17 09:13:09;;;;;;;12.30;10.40;;;4.30;99.90;;;;;;4952810;28;20618;-67
2023/12/17 09:15:38;;;;;;;14.27;9.90;;;4.40;99.90;;;;;;4955338;28;20557;-67
2023/12/17 09:18:05;;;;;;;11.27;9.90;;;4.50;99.90;;;;;;4959678;28;20785;-68
2023/12/17 09:20:32;;;;;;;13.97;9.67;;;4.60;99.90;;;;;;4957229;28;20454;-68
2023/12/17 09:22:58;;;;;;;12.23;9.13;;;4.60;99.90;;;;;;4955593;28;20450;-68
2023/12/17 09:25:23;;;;;;;11.37;8.90;;;4.70;99.90;;;;;;4954218;28;20488;-67
2023/12/17 09:27:51;;;;;;;13.10;8.60;;;4.80;99.90;;;;;;4958135;28;20432;-68
2023/12/17 09:30:17;;;;;;;11.47;8.90;;;4.80;99.90;;;;;;4958486;28;20194;-67
2023/12/17 09:32:44;;;;;;;10.13;8.67;;;4.90;99.90;;;;;;4961203;28;20494;-68
2023/12/17 09:35:10;;;;;;;11.53;9.00;;;4.90;99.90;;;;;;4960785;28;20932;-69
2023/12/17 09:37:36;;;;;;;11.00;8.27;;;4.80;99.90;;;;;;4960080;28;20434;-68
2023/12/17 09:40:02;;;;;;;11.67;9.00;;;4.80;99.90;;;;;;4955906;28;20460;-67
2023/12/17 09:42:29;;;;;;;9.90;7.50;;;4.80;99.90;;;;;;4960024;28;20587;-67
2023/12/17 09:44:54;;;;;;;9.20;7.67;;;4.80;99.90;;;;;;4952819;28;20478;-67
2023/12/17 09:47:20;;;;;;;10.33;8.20;;;4.70;99.90;;;;;;4954842;28;20801;-68
2023/12/17 09:49:46;;;;;;;9.43;8.17;;;4.70;99.90;;;;;;4953525;28;20191;-67
2023/12/17 09:52:12;;;;;;;8.93;7.20;;;4.80;99.90;;;;;;4960115;28;20273;-67
2023/12/17 09:54:39;;;;;;;10.83;9.43;;;4.80;99.90;;;;;;4959679;28;20218;-67
2023/12/17 09:57:10;;;;;;;11.27;8.60;;;4.90;99.90;;;;;;4954305;28;20437;-68
2023/12/17 09:59:35;;;;;;;10.57;7.70;;;5.00;99.90;;;;;;4955424;28;21023;-68
2023/12/17 10:02:01;;;;;;;12.50;7.87;;;5.10;99.90;;;;;;4965907;28;20558;-68
2023/12/17 10:04:27;;;;;;;9.77;8.00;;;5.10;99.90;;;;;;4947324;28;20712;-68
2023/12/17 10:06:53;;;;;;;9.30;7.83;;;5.20;99.90;;;;;;4958982;28;20433;-68
2023/12/17 10:09:19;;;;;;;12.60;8.90;;;5.20;99.90;;;;;;4959953;28;20415;-68
2023/12/17 10:11:45;;;;;;;10.20;8.03;;;5.30;99.90;;;;;;4960741;28;20182;-68
2023/12/17 10:14:24;;;;;;;10.23;7.97;;;5.40;99.90;;;;;;4960844;28;20276;-68
2023/12/17 10:16:51;;;;;;;17.23;8.80;;;5.20;99.90;;;;;;4966617;28;20280;-68
2023/12/17 10:19:17;;;;;;;10.23;9.10;;;5.20;99.90;;;;;;4960536;28;20940;-68
2023/12/17 10:21:43;;;;;;;11.53;8.90;;;5.40;99.90;;;;;;4953805;28;20858;-68
2023/12/17 10:24:09;;;;;;;9.70;8.23;;;5.50;99.90;;;;;;4950107;28;20474;-67
2023/12/17 10:26:48;;;;;;;11.83;8.33;;;5.50;99.90;;;;;;4959926;28;20914;-68
2023/12/17 10:29:18;;;;;;;11.00;8.73;;;5.50;99.90;;;;;;4965054;28;20413;-68
2023/12/17 10:31:45;;;;;;;11.20;9.60;;;5.50;99.90;;;;;;4967303;28;20454;-68
2023/12/17 10:34:22;;;;;;;14.83;10.10;;;5.40;99.90;;;;;;4966565;28;20455;-69
2023/12/17 10:36:49;;;;;;;15.70;10.73;;;5.40;99.90;;;;;;4960544;28;20427;-69
2023/12/17 10:39:16;;;;;;;15.53;10.10;;;5.40;99.90;;;;;;4962891;28;20433;-69
2023/12/17 10:41:42;;;;;;;11.27;9.27;;;5.30;99.90;;;;;;4965568;28;20457;-69
2023/12/17 10:44:13;;;;;;;13.23;10.47;;;5.40;99.90;;;;;;4952068;28;20988;-68
2023/12/17 10:46:43;;;;;;;13.73;11.03;;;5.60;99.90;;;;;;4956702;28;21138;-68
2023/12/17 10:49:10;;;;;;;16.83;11.17;;;5.60;99.90;;;;;;4959124;28;21935;-69
2023/12/17 10:51:39;;;;;;;14.97;10.77;;;5.60;99.90;;;;;;4963732;28;20548;-69
2023/12/17 10:54:06;;;;;;;12.43;11.00;;;5.60;99.90;;;;;;4969527;28;20507;-69
2023/12/17 10:56:40;;;;;;;15.27;11.13;;;5.60;99.90;;;;;;4962230;28;20532;-69
2023/12/17 10:59:09;;;;;;;13.03;10.13;;;5.50;99.90;;;;;;4960192;28;20488;-69
2023/12/17 11:01:38;;;;;;;14.87;10.23;;;5.50;99.90;;;;;;4954585;28;20434;-69
2023/12/17 11:04:05;;;;;;;12.43;10.00;;;5.50;99.90;;;;;;4962254;28;21074;-68
2023/12/17 11:06:30;;;;;;;12.83;10.23;;;5.60;99.90;;;;;;4956416;28;20421;-68
2023/12/17 11:08:56;;;;;;;14.10;10.37;;;5.70;99.90;;;;;;4962571;28;20539;-68
2023/12/17 11:11:22;;;;;;;12.73;9.60;;;5.70;99.90;;;;;;4962222;28;20192;-68
2023/12/17 11:13:49;;;;;;;13.30;10.67;;;5.70;99.90;;;;;;4964331;28;20222;-67
2023/12/17 11:16:28;;;;;;;11.73;9.17;;;5.80;99.90;;;;;;4960621;28;20450;-67
2023/12/17 11:18:58;;;;;;;19.33;12.13;;;5.90;99.90;;;;;;4962684;28;20417;-66
2023/12/17 11:21:24;;;;;;;11.37;9.83;;;5.90;99.90;;;;;;4957442;28;20805;-67
2023/12/17 11:23:51;;;;;;;14.83;10.30;;;5.90;99.90;;;;;;4959680;28;20491;-66
2023/12/17 11:26:17;;;;;;;13.37;9.83;;;6.00;99.90;;;;;;4960632;28;20206;-67
2023/12/17 11:28:44;;;;;;;10.67;8.80;;;6.10;99.90;;;;;;4959292;28;20441;-67
2023/12/17 11:31:12;;;;;;;14.00;9.93;;;6.10;99.90;;;;;;4957392;28;20444;-67
2023/12/17 11:33:39;;;;;;;13.77;10.03;;;6.10;99.90;;;;;;4962258;28;20845;-68
2023/12/17 11:36:05;;;;;;;13.70;11.13;;;6.00;99.90;;;;;;4967003;28;20430;-67
2023/12/17 11:38:32;;;;;;;14.07;9.70;;;6.00;99.90;;;;;;4964688;28;20450;-67
2023/12/17 11:40:57;;;;;;;12.70;8.90;;;6.10;99.90;;;;;;4955739;28;20935;-67
2023/12/17 11:43:25;;;;;;;12.20;9.10;;;6.10;99.90;;;;;;4963457;28;20521;-68
2023/12/17 11:45:51;;;;;;;12.27;9.73;;;6.30;99.90;;;;;;4963941;28;20246;-68
2023/12/17 11:48:19;;;;;;;11.37;9.13;;;6.40;99.90;;;;;;4962806;28;20447;-68
2023/12/17 11:50:49;;;;;;;10.80;8.30;;;6.70;99.90;;;;;;4959011;28;20516;-68
2023/12/17 11:53:17;;;;;;;13.23;9.07;;;7.00;99.90;;;;;;4955222;28;20472;-68
2023/12/17 11:55:53;;;;;;;9.50;8.20;;;7.70;99.90;;;;;;4961900;28;20430;-67
2023/12/17 11:58:21;;;;;;;7.93;7.03;;;8.60;99.90;;;;;;4956890;28;20426;-68
2023/12/17 12:01:05;;;;;;;8.33;7.10;;;9.30;99.90;;;;;;4961315;28;20432;-68
2023/12/17 12:03:32;;;;;;;12.07;7.67;;;9.50;99.90;;;;;;4956153;28;20557;-68
2023/12/17 12:06:06;;;;;;;11.83;7.37;;;9.50;99.90;;;;;;4957803;28;20458;-68
2023/12/17 12:08:45;;;;;;;10.60;7.73;;;9.90;99.90;;;;;;4956652;28;20418;-68
2023/12/17 12:11:17;;;;;;;9.40;8.30;;;9.80;99.90;;;;;;4950220;28;21037;-68
2023/12/17 12:13:45;;;;;;;11.13;9.93;;;9.60;99.90;;;;;;4959478;28;21015;-68
2023/12/17 12:16:14;;;;;;;10.10;8.50;;;9.70;99.90;;;;;;4959407;28;21236;-68
2023/12/17 12:18:40;;;;;;;8.10;7.30;;;10.60;99.90;;;;;;4962570;28;20493;-67
2023/12/17 12:21:19;;;;;;;7.93;7.13;;;11.80;99.90;;;;;;4959516;28;20453;-68
2023/12/17 12:23:59;;;;;;;9.37;7.87;;;12.90;99.90;;;;;;4959939;28;20516;-68
2023/12/17 12:26:25;;;;;;;9.43;8.43;;;13.80;99.90;;;;;;4961791;28;20509;-69
2023/12/17 12:28:55;;;;;;;8.80;8.00;;;14.30;99.90;;;;;;4963600;28;20497;-69
2023/12/17 12:31:20;;;;;;;9.27;8.27;;;14.60;99.90;;;;;;4960685;28;20531;-66
2023/12/17 12:33:59;;;;;;;10.30;9.20;;;14.70;99.90;;;;;;4964288;28;20488;-68
2023/12/17 12:36:26;;;;;;;8.83;8.00;;;14.70;99.90;;;;;;4962130;28;20182;-67
2023/12/17 12:39:05;;;;;;;10.07;8.40;;;14.60;99.90;;;;;;4961821;28;20438;-67
2023/12/17 12:41:34;;;;;;;8.43;7.50;;;14.40;99.90;;;;;;4962089;28;20528;-67
2023/12/17 12:43:59;;;;;;;8.73;7.40;;;14.30;99.90;;;;;;4961144;28;20509;-67
2023/12/17 12:46:26;;;;;;;8.00;7.20;;;14.10;99.90;;;;;;4960354;28;20469;-67